createdAt,value
2023-03-10T00:00:35.697Z,986.99
2023-03-10T00:02:35.614Z,986.99
2023-03-10T00:04:35.570Z,986.96
2023-03-10T00:06:35.677Z,986.96
2023-03-10T00:08:38.483Z,986.86
2023-03-10T00:10:35.434Z,986.86
2023-03-10T00:12:35.832Z,986.75
2023-03-10T00:14:35.561Z,986.75
2023-03-10T00:16:36.182Z,986.76
2023-03-10T00:18:35.517Z,986.76
2023-03-10T00:20:35.946Z,986.58
2023-03-10T00:22:35.272Z,986.58
2023-03-10T00:24:35.705Z,986.7
2023-03-10T00:26:35.189Z,986.7
2023-03-10T00:28:35.699Z,986.7
2023-03-10T00:30:35.363Z,986.7
2023-03-10T00:32:35.916Z,986.66
2023-03-10T00:34:36.104Z,986.66
2023-03-10T00:36:35.698Z,986.61
2023-03-10T00:38:35.894Z,986.61
2023-03-10T00:40:35.397Z,986.57
2023-03-10T00:42:35.951Z,986.57
2023-03-10T00:44:35.444Z,986.48
2023-03-10T00:46:36.179Z,986.48
2023-03-10T00:48:35.232Z,986.49
2023-03-10T00:50:35.948Z,986.49
2023-03-10T00:52:35.105Z,986.4
2023-03-10T00:54:35.525Z,986.4
2023-03-10T00:56:35.923Z,986.43
2023-03-10T00:58:35.303Z,986.43
2023-03-10T01:00:40.803Z,986.55
2023-03-10T01:02:36.150Z,986.46
2023-03-10T01:04:35.649Z,986.46
2023-03-10T01:06:35.881Z,986.48
2023-03-10T01:08:35.168Z,986.48
2023-03-10T01:10:35.663Z,986.42
2023-03-10T01:12:35.199Z,986.42
2023-03-10T01:14:35.773Z,986.4
2023-03-10T01:16:35.417Z,986.4
2023-03-10T01:18:35.738Z,986.26
2023-03-10T01:20:35.215Z,986.26
2023-03-10T01:22:35.539Z,986.18
2023-03-10T01:24:36.002Z,986.18
2023-03-10T01:26:35.411Z,986.06
2023-03-10T01:28:35.901Z,986.06
2023-03-10T01:30:35.352Z,986.13
2023-03-10T01:32:36.120Z,986.13
2023-03-10T01:34:35.477Z,986.07
2023-03-10T01:36:36.189Z,986.07
2023-03-10T01:38:35.424Z,986.17
2023-03-10T01:40:35.940Z,986.17
2023-03-10T01:42:35.412Z,985.99
2023-03-10T01:44:35.835Z,985.99
2023-03-10T01:46:35.695Z,985.92
2023-03-10T01:48:36.042Z,985.92
2023-03-10T01:50:35.456Z,986.03
2023-03-10T01:52:35.936Z,986.03
2023-03-10T01:54:35.327Z,985.83
2023-03-10T01:56:35.846Z,985.83
2023-03-10T01:58:35.214Z,985.94
2023-03-10T02:00:39.157Z,985.94
2023-03-10T02:02:36.199Z,985.86
2023-03-10T02:04:35.448Z,985.86
2023-03-10T02:06:35.842Z,985.68
2023-03-10T02:08:35.273Z,985.68
2023-03-10T02:10:35.893Z,985.77
2023-03-10T02:12:35.403Z,985.77
2023-03-10T02:14:35.904Z,985.85
2023-03-10T02:16:35.702Z,985.85
2023-03-10T02:18:35.189Z,985.75
2023-03-10T02:20:35.661Z,985.75
2023-03-10T02:22:35.109Z,985.71
2023-03-10T02:24:35.890Z,985.71
2023-03-10T02:26:35.235Z,985.59
2023-03-10T02:28:35.922Z,985.59
2023-03-10T02:30:35.489Z,985.51
2023-03-10T02:32:36.249Z,985.51
2023-03-10T02:34:35.812Z,985.54
2023-03-10T02:36:36.242Z,985.54
2023-03-10T02:38:35.417Z,985.58
2023-03-10T02:40:35.893Z,985.58
2023-03-10T02:42:35.351Z,985.58
2023-03-10T02:44:35.859Z,985.58
2023-03-10T02:46:35.550Z,985.54
2023-03-10T02:48:39.398Z,985.54
2023-03-10T02:50:35.449Z,985.49
2023-03-10T02:52:35.785Z,985.49
2023-03-10T02:54:35.323Z,985.41
2023-03-10T02:56:35.954Z,985.41
2023-03-10T02:58:35.431Z,985.35
2023-03-10T03:00:39.366Z,985.35
2023-03-10T03:02:35.240Z,985.43
2023-03-10T03:04:36.050Z,985.43
2023-03-10T03:06:35.324Z,985.42
2023-03-10T03:08:35.697Z,985.42
2023-03-10T03:10:35.132Z,985.47
2023-03-10T03:12:35.776Z,985.47
2023-03-10T03:14:35.138Z,985.24
2023-03-10T03:16:35.736Z,985.24
2023-03-10T03:18:36.037Z,985.13
2023-03-10T03:20:35.630Z,985.13
2023-03-10T03:22:35.899Z,985.35
2023-03-10T03:24:35.471Z,985.35
2023-03-10T03:26:36.089Z,985.3
2023-03-10T03:28:35.511Z,985.3
2023-03-10T03:30:36.082Z,985.19
2023-03-10T03:32:35.862Z,985.19
2023-03-10T03:34:36.089Z,985.12
2023-03-10T03:36:35.558Z,985.12
2023-03-10T03:38:35.931Z,985.14
2023-03-10T03:40:35.427Z,985.14
2023-03-10T03:42:35.804Z,985.16
2023-03-10T03:44:35.337Z,985.16
2023-03-10T03:46:35.533Z,985.12
2023-03-10T03:48:35.756Z,985.12
2023-03-10T03:50:35.891Z,985.17
2023-03-10T03:52:35.283Z,985.17
2023-03-10T03:54:35.962Z,985.2
2023-03-10T03:56:35.422Z,985.2
2023-03-10T03:58:35.833Z,985.1
2023-03-10T04:00:39.340Z,985.1
2023-03-10T04:02:35.702Z,985.25
2023-03-10T04:04:35.976Z,985.25
2023-03-10T04:06:35.382Z,985.31
2023-03-10T04:08:35.885Z,985.31
2023-03-10T04:10:35.504Z,985.3
2023-03-10T04:12:36.011Z,985.3
2023-03-10T04:14:35.238Z,985.27
2023-03-10T04:16:35.920Z,985.27
2023-03-10T04:18:35.272Z,985.07
2023-03-10T04:20:41.843Z,984.99
2023-03-10T04:22:35.464Z,984.99
2023-03-10T04:24:35.959Z,984.85
2023-03-10T04:26:35.461Z,984.85
2023-03-10T04:28:36.023Z,984.97
2023-03-10T04:30:35.508Z,984.97
2023-03-10T04:32:40.036Z,984.93
2023-03-10T04:34:35.519Z,984.93
2023-03-10T04:36:36.120Z,985.07
2023-03-10T04:38:35.285Z,985.07
2023-03-10T04:40:35.978Z,985.19
2023-03-10T04:42:35.327Z,985.19
2023-03-10T04:44:53.330Z,985.08
2023-03-10T04:46:35.553Z,985.08
2023-03-10T04:48:35.962Z,984.94
2023-03-10T04:50:35.468Z,984.94
2023-03-10T04:52:35.869Z,984.93
2023-03-10T04:54:35.401Z,984.93
2023-03-10T04:56:36.031Z,984.87
2023-03-10T04:58:35.466Z,984.87
2023-03-10T05:00:53.191Z,984.9
2023-03-10T05:02:35.529Z,984.9
2023-03-10T05:04:36.246Z,984.81
2023-03-10T05:06:35.155Z,984.81
2023-03-10T05:08:35.642Z,984.79
2023-03-10T05:10:35.410Z,984.79
2023-03-10T05:12:35.871Z,984.88
2023-03-10T05:14:35.382Z,984.88
2023-03-10T05:16:36.313Z,985.03
2023-03-10T05:18:35.504Z,985.03
2023-03-10T05:20:35.916Z,984.94
2023-03-10T05:22:35.369Z,984.94
2023-03-10T05:24:36.003Z,984.87
2023-03-10T05:26:35.449Z,984.87
2023-03-10T05:28:35.840Z,984.95
2023-03-10T05:30:35.479Z,984.95
2023-03-10T05:32:35.404Z,985
2023-03-10T05:34:35.426Z,985
2023-03-10T05:36:35.930Z,984.92
2023-03-10T05:38:35.396Z,984.92
2023-03-10T05:40:35.872Z,984.96
2023-03-10T05:42:35.298Z,984.96
2023-03-10T05:44:35.755Z,984.98
2023-03-10T05:46:35.500Z,984.98
2023-03-10T05:48:35.738Z,984.81
2023-03-10T05:50:35.122Z,984.81
2023-03-10T05:52:35.743Z,984.89
2023-03-10T05:54:35.399Z,984.89
2023-03-10T05:56:35.977Z,984.89
2023-03-10T05:58:35.390Z,984.89
2023-03-10T06:00:40.200Z,984.97
2023-03-10T06:02:36.002Z,984.97
2023-03-10T06:04:35.761Z,984.92
2023-03-10T06:06:36.016Z,984.92
2023-03-10T06:08:35.470Z,984.88
2023-03-10T06:10:35.768Z,984.88
2023-03-10T06:12:35.127Z,984.98
2023-03-10T06:14:35.679Z,984.98
2023-03-10T06:16:35.816Z,984.97
2023-03-10T06:18:36.083Z,984.97
2023-03-10T06:20:35.320Z,984.91
2023-03-10T06:22:35.942Z,984.91
2023-03-10T06:24:35.435Z,984.85
2023-03-10T06:26:35.848Z,984.85
2023-03-10T06:28:35.313Z,985.07
2023-03-10T06:30:35.878Z,985.07
2023-03-10T06:32:35.846Z,984.89
2023-03-10T06:34:38.477Z,984.89
2023-03-10T06:36:35.666Z,985
2023-03-10T06:38:35.878Z,985
2023-03-10T06:40:35.536Z,984.94
2023-03-10T06:42:35.789Z,984.94
2023-03-10T06:44:35.268Z,984.94
2023-03-10T06:46:36.062Z,984.94
2023-03-10T06:48:35.350Z,985.1
2023-03-10T06:50:35.804Z,985.1
2023-03-10T06:52:35.258Z,984.94
2023-03-10T06:54:35.791Z,984.94
2023-03-10T06:56:35.231Z,985.03
2023-03-10T06:58:35.473Z,985.03
2023-03-10T07:00:39.639Z,985
2023-03-10T07:02:35.564Z,985
2023-03-10T07:04:36.240Z,985.02
2023-03-10T07:06:35.435Z,985.02
2023-03-10T07:08:35.837Z,984.97
2023-03-10T07:10:35.337Z,984.97
2023-03-10T07:12:35.660Z,985.05
2023-03-10T07:14:36.030Z,985.05
2023-03-10T07:16:35.590Z,985.02
2023-03-10T07:18:35.819Z,985.02
2023-03-10T07:20:35.250Z,985.05
2023-03-10T07:22:35.716Z,985.05
2023-03-10T07:24:35.783Z,985.03
2023-03-10T07:26:35.989Z,985.03
2023-03-10T07:28:35.384Z,985.11
2023-03-10T07:30:35.894Z,985.11
2023-03-10T07:32:35.396Z,985.03
2023-03-10T07:34:35.593Z,985.03
2023-03-10T07:36:35.326Z,985.21
2023-03-10T07:38:35.573Z,985.21
2023-03-10T07:40:36.197Z,985.1
2023-03-10T07:42:35.499Z,985.22
2023-03-10T07:44:35.905Z,985.22
2023-03-10T07:46:35.813Z,985.26
2023-03-10T07:48:35.929Z,985.26
2023-03-10T07:50:35.495Z,985.23
2023-03-10T07:52:36.003Z,985.23
2023-03-10T07:54:35.419Z,985.23
2023-03-10T07:56:35.805Z,985.23
2023-03-10T07:58:35.723Z,985.17
2023-03-10T08:00:40.543Z,985.17
2023-03-10T08:02:35.788Z,985.28
2023-03-10T08:04:36.700Z,985.28
2023-03-10T08:06:35.773Z,985.24
2023-03-10T08:08:35.998Z,985.24
2023-03-10T08:10:35.598Z,985.39
2023-03-10T08:12:35.899Z,985.39
2023-03-10T08:14:35.579Z,985.5
2023-03-10T08:16:36.761Z,985.5
2023-03-10T08:18:35.543Z,985.41
2023-03-10T08:20:35.975Z,985.41
2023-03-10T08:22:35.368Z,985.44
2023-03-10T08:24:35.799Z,985.44
2023-03-10T08:26:35.621Z,985.39
2023-03-10T08:28:36.194Z,985.39
2023-03-10T08:30:35.442Z,985.44
2023-03-10T08:32:36.476Z,985.44
2023-03-10T08:34:35.146Z,985.5
2023-03-10T08:36:36.388Z,985.5
2023-03-10T08:38:35.175Z,985.52
2023-03-10T08:40:35.672Z,985.52
2023-03-10T08:42:35.143Z,985.58
2023-03-10T08:44:35.922Z,985.58
2023-03-10T08:46:35.409Z,985.35
2023-03-10T08:48:35.594Z,985.35
2023-03-10T08:50:35.321Z,985.63
2023-03-10T08:52:35.507Z,985.63
2023-03-10T08:54:35.315Z,985.62
2023-03-10T08:56:35.698Z,985.62
2023-03-10T08:58:35.054Z,985.56
2023-03-10T09:00:40.991Z,985.56
2023-03-10T09:02:36.127Z,985.45
2023-03-10T09:04:35.309Z,985.45
2023-03-10T09:06:35.612Z,985.67
2023-03-10T09:08:38.343Z,985.67
2023-03-10T09:10:35.686Z,985.61
2023-03-10T09:12:38.664Z,985.61
2023-03-10T09:14:38.921Z,985.87
2023-03-10T09:16:35.567Z,985.87
2023-03-10T09:18:35.595Z,985.91
2023-03-10T09:20:35.386Z,985.91
2023-03-10T09:22:35.694Z,985.82
2023-03-10T09:24:35.056Z,985.82
2023-03-10T09:26:35.642Z,985.82
2023-03-10T09:28:35.157Z,985.82
2023-03-10T09:30:35.980Z,985.9
2023-03-10T09:32:36.832Z,985.9
2023-03-10T09:34:35.582Z,985.93
2023-03-10T09:36:42.217Z,985.93
2023-03-10T09:38:35.530Z,986.01
2023-03-10T09:40:38.517Z,986.01
2023-03-10T09:42:48.511Z,986.09
2023-03-10T09:44:35.202Z,986.09
2023-03-10T09:46:35.826Z,986.21
2023-03-10T09:48:38.611Z,986.21
2023-03-10T09:50:35.812Z,986.34
2023-03-10T09:52:35.150Z,986.34
2023-03-10T09:54:35.693Z,986.28
2023-03-10T09:56:35.217Z,986.28
2023-03-10T09:58:37.890Z,986.3
2023-03-10T10:00:39.876Z,986.3
2023-03-10T10:02:35.837Z,986.27
2023-03-10T10:04:35.960Z,986.27
2023-03-10T10:06:39.553Z,986.37
2023-03-10T10:08:39.434Z,986.37
2023-03-10T10:10:35.950Z,986.42
2023-03-10T10:12:35.341Z,986.42
2023-03-10T10:14:57.548Z,986.48
2023-03-10T10:16:58.988Z,986.48
2023-03-10T10:18:52.364Z,986.46
2023-03-10T10:20:35.304Z,986.46
2023-03-10T10:22:35.842Z,986.54
2023-03-10T10:24:35.127Z,986.54
2023-03-10T10:26:36.602Z,986.5
2023-03-10T10:28:35.992Z,986.5
2023-03-10T10:30:38.145Z,986.61
2023-03-10T10:32:36.450Z,986.61
2023-03-10T10:34:38.938Z,986.57
2023-03-10T10:36:36.162Z,986.57
2023-03-10T10:38:35.764Z,986.69
2023-03-10T10:40:35.130Z,986.69
2023-03-10T10:42:35.981Z,986.57
2023-03-10T10:44:35.246Z,986.57
2023-03-10T10:46:36.253Z,986.62
2023-03-10T10:48:35.316Z,986.62
2023-03-10T10:50:35.952Z,986.64
2023-03-10T10:52:35.370Z,986.64
2023-03-10T10:54:35.779Z,986.79
2023-03-10T10:56:35.350Z,986.79
2023-03-10T10:58:35.882Z,986.86
2023-03-10T11:00:39.139Z,986.92
2023-03-10T11:02:36.313Z,986.92
2023-03-10T11:04:35.109Z,986.85
2023-03-10T11:06:35.783Z,986.85
2023-03-10T11:08:35.175Z,986.97
2023-03-10T11:10:35.698Z,986.97
2023-03-10T11:12:35.340Z,987.11
2023-03-10T11:14:35.780Z,987.11
2023-03-10T11:16:35.399Z,987.11
2023-03-10T11:18:35.747Z,987.11
2023-03-10T11:20:35.353Z,987
2023-03-10T11:22:35.810Z,987
2023-03-10T11:24:37.291Z,987.09
2023-03-10T11:26:35.775Z,987.09
2023-03-10T11:28:35.472Z,987.06
2023-03-10T11:30:37.339Z,987.06
2023-03-10T11:32:35.553Z,986.99
2023-03-10T11:34:35.925Z,986.99
2023-03-10T11:36:40.758Z,986.95
2023-03-10T11:38:35.710Z,986.95
2023-03-10T11:40:35.452Z,986.9
2023-03-10T11:42:37.590Z,986.9
2023-03-10T11:44:35.429Z,987.08
2023-03-10T11:46:36.240Z,987.08
2023-03-10T11:48:35.320Z,987.24
2023-03-10T11:50:35.996Z,987.24
2023-03-10T11:52:35.343Z,987.23
2023-03-10T11:54:38.330Z,987.23
2023-03-10T11:56:35.467Z,987.45
2023-03-10T11:58:36.217Z,987.45
2023-03-10T12:00:37.426Z,987.58
2023-03-10T12:02:35.780Z,987.58
2023-03-10T12:04:36.284Z,987.62
2023-03-10T12:06:38.064Z,987.62
2023-03-10T12:08:35.885Z,987.75
2023-03-10T12:10:35.408Z,987.75
2023-03-10T12:12:37.405Z,987.7
2023-03-10T12:14:35.272Z,987.7
2023-03-10T12:16:35.955Z,987.55
2023-03-10T12:18:38.234Z,987.55
2023-03-10T12:20:35.791Z,987.48
2023-03-10T12:22:35.967Z,987.48
2023-03-10T12:24:37.271Z,987.49
2023-03-10T12:26:36.005Z,987.49
2023-03-10T12:28:35.367Z,987.65
2023-03-10T12:30:37.318Z,987.65
2023-03-10T12:32:35.895Z,987.94
2023-03-10T12:34:36.026Z,987.94
2023-03-10T12:36:39.072Z,988.05
2023-03-10T12:38:35.949Z,988.05
2023-03-10T12:40:35.501Z,988.11
2023-03-10T12:42:37.494Z,988.11
2023-03-10T12:44:35.680Z,988.31
2023-03-10T12:46:35.266Z,988.31
2023-03-10T12:48:35.667Z,988.59
2023-03-10T12:50:35.247Z,988.59
2023-03-10T12:52:35.532Z,988.76
2023-03-10T12:54:35.073Z,988.76
2023-03-10T12:56:35.677Z,989.01
2023-03-10T12:58:35.124Z,989.01
2023-03-10T13:00:39.161Z,989.1
2023-03-10T13:02:35.929Z,989.1
2023-03-10T13:04:35.499Z,989.23
2023-03-10T13:06:35.824Z,989.23
2023-03-10T13:08:35.379Z,989.47
2023-03-10T13:10:35.959Z,989.47
2023-03-10T13:12:35.572Z,989.66
2023-03-10T13:14:36.073Z,989.66
2023-03-10T13:16:35.431Z,989.97
2023-03-10T13:18:35.699Z,989.97
2023-03-10T13:20:35.394Z,990.27
2023-03-10T13:22:35.796Z,990.27
2023-03-10T13:24:35.119Z,990.49
2023-03-10T13:26:35.870Z,990.49
2023-03-10T13:28:35.365Z,990.38
2023-03-10T13:30:35.766Z,990.38
2023-03-10T13:32:35.857Z,990.55
2023-03-10T13:34:36.053Z,990.55
2023-03-10T13:36:35.592Z,991.22
2023-03-10T13:38:35.029Z,991.22
2023-03-10T13:40:35.722Z,991.41
2023-03-10T13:42:45.236Z,991.41
2023-03-10T13:44:35.713Z,991.68
2023-03-10T13:46:35.673Z,991.68
2023-03-10T13:48:35.156Z,991.9
2023-03-10T13:50:35.604Z,991.9
2023-03-10T13:52:35.845Z,992.17
2023-03-10T13:54:35.370Z,992.17
2023-03-10T13:56:35.930Z,992.38
2023-03-10T13:58:35.294Z,992.38
2023-03-10T14:00:38.834Z,992.78
2023-03-10T14:02:35.840Z,992.78
2023-03-10T14:04:35.320Z,992.74
2023-03-10T14:06:35.758Z,992.74
2023-03-10T14:08:35.137Z,993.04
2023-03-10T14:10:35.833Z,993.04
2023-03-10T14:12:35.464Z,993.08
2023-03-10T14:14:35.737Z,993.08
2023-03-10T14:16:36.238Z,993.46
2023-03-10T14:18:35.514Z,993.46
2023-03-10T14:20:35.139Z,993.61
2023-03-10T14:22:36.273Z,993.61
2023-03-10T14:24:35.865Z,993.73
2023-03-10T14:26:35.929Z,993.72
2023-03-10T14:28:35.266Z,993.72
2023-03-10T14:30:36.019Z,994.06
2023-03-10T14:32:35.737Z,994.06
2023-03-10T14:34:35.942Z,994.2
2023-03-10T14:36:35.679Z,994.2
2023-03-10T14:38:35.776Z,994.36
2023-03-10T14:40:35.504Z,994.36
2023-03-10T14:42:35.963Z,994.5
2023-03-10T14:44:35.253Z,994.5
2023-03-10T14:46:36.790Z,994.76
2023-03-10T14:48:35.824Z,994.76
2023-03-10T14:50:35.551Z,994.93
2023-03-10T14:52:35.071Z,994.93
2023-03-10T14:54:35.523Z,995.15
2023-03-10T14:56:36.082Z,995.15
2023-03-10T14:58:35.579Z,995.43
2023-03-10T15:00:40.367Z,995.43
2023-03-10T15:02:35.365Z,995.43
2023-03-10T15:04:35.996Z,995.43
2023-03-10T15:06:35.132Z,995.35
2023-03-10T15:08:41.947Z,995.35
2023-03-10T15:10:45.659Z,995.37
2023-03-10T15:12:35.858Z,995.37
2023-03-10T15:14:35.324Z,995.72
2023-03-10T15:16:35.952Z,995.72
2023-03-10T15:18:35.290Z,995.81
2023-03-10T15:20:35.729Z,995.81
2023-03-10T15:22:36.070Z,995.88
2023-03-10T15:24:35.641Z,995.88
2023-03-10T15:26:36.186Z,996.18
2023-03-10T15:28:36.366Z,996.18
2023-03-10T15:30:35.083Z,996.37
2023-03-10T15:32:35.949Z,996.37
2023-03-10T15:34:35.144Z,996.5
2023-03-10T15:36:35.788Z,996.5
2023-03-10T15:38:35.981Z,996.73
2023-03-10T15:40:35.538Z,996.73
2023-03-10T15:42:35.961Z,996.66
2023-03-10T15:44:35.279Z,996.66
2023-03-10T15:46:36.175Z,996.88
2023-03-10T15:48:35.264Z,996.88
2023-03-10T15:50:35.548Z,997.05
2023-03-10T15:52:35.119Z,997.05
2023-03-10T15:54:35.628Z,997.1
2023-03-10T15:56:35.179Z,997.1
2023-03-10T15:58:35.597Z,997.24
2023-03-10T16:00:39.308Z,997.24
2023-03-10T16:02:35.627Z,997.27
2023-03-10T16:04:35.972Z,997.27
2023-03-10T16:06:35.346Z,997.4
2023-03-10T16:08:35.876Z,997.4
2023-03-10T16:10:35.457Z,997.2
2023-03-10T16:12:35.972Z,997.2
2023-03-10T16:14:35.373Z,997.54
2023-03-10T16:16:36.464Z,997.54
2023-03-10T16:18:35.584Z,997.86
2023-03-10T16:20:36.090Z,997.86
2023-03-10T16:22:35.390Z,998.01
2023-03-10T16:24:36.029Z,998.01
2023-03-10T16:26:35.480Z,998.03
2023-03-10T16:28:35.964Z,998.03
2023-03-10T16:30:35.890Z,998.17
2023-03-10T16:32:36.475Z,998.17
2023-03-10T16:34:35.522Z,998.26
2023-03-10T16:36:36.134Z,998.26
2023-03-10T16:38:35.569Z,998.41
2023-03-10T16:40:36.046Z,998.41
2023-03-10T16:42:35.360Z,998.41
2023-03-10T16:44:35.747Z,998.41
2023-03-10T16:46:35.515Z,998.71
2023-03-10T16:48:35.554Z,998.71
2023-03-10T16:50:35.404Z,998.75
2023-03-10T16:52:35.678Z,998.75
2023-03-10T16:54:36.027Z,998.83
2023-03-10T16:56:35.294Z,998.83
2023-03-10T16:58:35.735Z,998.87
2023-03-10T17:00:39.876Z,998.87
2023-03-10T17:02:35.943Z,998.86
2023-03-10T17:04:35.529Z,998.86
2023-03-10T17:06:35.911Z,999.17
2023-03-10T17:08:35.326Z,999.17
2023-03-10T17:10:36.093Z,999.43
2023-03-10T17:12:35.381Z,999.43
2023-03-10T17:14:35.741Z,999.52
2023-03-10T17:16:35.328Z,999.52
2023-03-10T17:18:35.536Z,999.62
2023-03-10T17:20:36.305Z,999.62
2023-03-10T17:22:37.802Z,999.72
2023-03-10T17:24:35.976Z,999.72
2023-03-10T17:26:35.362Z,999.71
2023-03-10T17:28:35.745Z,999.71
2023-03-10T17:30:35.589Z,999.73
2023-03-10T17:32:36.082Z,999.73
2023-03-10T17:34:35.311Z,999.86
2023-03-10T17:36:35.694Z,999.86
2023-03-10T17:38:35.105Z,1000.19
2023-03-10T17:40:35.675Z,1000.19
2023-03-10T17:42:35.163Z,1000.12
2023-03-10T17:44:35.878Z,1000.12
2023-03-10T17:46:35.607Z,1000.37
2023-03-10T17:48:35.709Z,1000.37
2023-03-10T17:50:35.556Z,1000.43
2023-03-10T17:52:36.468Z,1000.52
2023-03-10T17:54:35.740Z,1000.52
2023-03-10T17:56:36.043Z,1000.74
2023-03-10T17:58:35.425Z,1000.74
2023-03-10T18:00:41.649Z,1000.74
2023-03-10T18:02:36.060Z,1000.74
2023-03-10T18:04:35.742Z,1000.76
2023-03-10T18:06:35.311Z,1000.76
2023-03-10T18:08:35.613Z,1001.13
2023-03-10T18:10:36.001Z,1001.13
2023-03-10T18:12:35.233Z,1001.05
2023-03-10T18:14:37.855Z,1001.05
2023-03-10T18:16:35.437Z,1001.22
2023-03-10T18:18:35.804Z,1001.22
2023-03-10T18:20:35.330Z,1001.22
2023-03-10T18:22:35.816Z,1001.22
2023-03-10T18:24:35.350Z,1001.14
2023-03-10T18:26:35.577Z,1001.14
2023-03-10T18:28:36.007Z,1001.23
2023-03-10T18:30:35.631Z,1001.23
2023-03-10T18:32:37.501Z,1001.22
2023-03-10T18:34:35.524Z,1001.22
2023-03-10T18:36:36.466Z,1001.38
2023-03-10T18:38:35.601Z,1001.38
2023-03-10T18:40:36.093Z,1001.41
2023-03-10T18:42:35.690Z,1001.41
2023-03-10T18:44:35.369Z,1001.65
2023-03-10T18:46:36.014Z,1001.65
2023-03-10T18:48:35.910Z,1001.62
2023-03-10T18:50:35.559Z,1001.62
2023-03-10T18:52:35.950Z,1001.67
2023-03-10T18:54:35.242Z,1001.67
2023-03-10T18:56:35.733Z,1001.7
2023-03-10T18:58:35.153Z,1001.7
2023-03-10T19:00:39.100Z,1001.81
2023-03-10T19:02:36.078Z,1001.81
2023-03-10T19:04:35.443Z,1001.86
2023-03-10T19:06:35.904Z,1001.86
2023-03-10T19:08:35.354Z,1001.96
2023-03-10T19:10:35.812Z,1001.96
2023-03-10T19:12:35.331Z,1002.12
2023-03-10T19:14:35.839Z,1002.12
2023-03-10T19:16:35.416Z,1002.29
2023-03-10T19:18:35.653Z,1002.29
2023-03-10T19:20:36.031Z,1002.38
2023-03-10T19:22:35.471Z,1002.38
2023-03-10T19:24:35.882Z,1002.52
2023-03-10T19:26:35.406Z,1002.52
2023-03-10T19:28:35.899Z,1002.61
2023-03-10T19:30:35.512Z,1002.61
2023-03-10T19:32:36.177Z,1002.72
2023-03-10T19:34:35.451Z,1002.72
2023-03-10T19:36:36.389Z,1002.68
2023-03-10T19:38:35.628Z,1002.68
2023-03-10T19:40:36.089Z,1002.83
2023-03-10T19:42:35.392Z,1002.83
2023-03-10T19:44:35.907Z,1002.81
2023-03-10T19:46:35.608Z,1002.81
2023-03-10T19:48:35.936Z,1002.82
2023-03-10T19:50:35.409Z,1002.82
2023-03-10T19:52:35.911Z,1002.9
2023-03-10T19:54:35.328Z,1002.9
2023-03-10T19:56:35.942Z,1003.09
2023-03-10T19:58:35.545Z,1003.09
2023-03-10T20:00:39.384Z,1003
2023-03-10T20:02:35.657Z,1003
2023-03-10T20:04:35.056Z,1003.01
2023-03-10T20:06:35.688Z,1003.01
2023-03-10T20:08:35.277Z,1003.18
2023-03-10T20:10:35.918Z,1003.18
2023-03-10T20:12:35.136Z,1003.14
2023-03-10T20:14:35.778Z,1003.14
2023-03-10T20:16:36.090Z,1003.18
2023-03-10T20:18:35.850Z,1003.18
2023-03-10T20:20:35.580Z,1003.39
2023-03-10T20:22:36.064Z,1003.39
2023-03-10T20:24:35.490Z,1003.27
2023-03-10T20:26:36.073Z,1003.27
2023-03-10T20:28:35.388Z,1003.35
2023-03-10T20:30:35.810Z,1003.35
2023-03-10T20:32:35.748Z,1003.36
2023-03-10T20:34:35.815Z,1003.36
2023-03-10T20:36:35.537Z,1003.46
2023-03-10T20:38:36.000Z,1003.46
2023-03-10T20:40:35.331Z,1003.64
2023-03-10T20:42:35.839Z,1003.64
2023-03-10T20:44:35.250Z,1003.88
2023-03-10T20:46:35.960Z,1003.88
2023-03-10T20:48:35.368Z,1003.94
2023-03-10T20:50:35.929Z,1003.94
2023-03-10T20:52:35.415Z,1004.08
2023-03-10T20:54:35.873Z,1004.08
2023-03-10T20:56:35.238Z,1004.06
2023-03-10T20:58:35.744Z,1004.06
2023-03-10T21:00:39.186Z,1004.12
2023-03-10T21:02:35.835Z,1004.12
2023-03-10T21:04:39.287Z,1004.12
2023-03-10T21:06:35.981Z,1004.12
2023-03-10T21:08:35.324Z,1004.3
2023-03-10T21:10:35.936Z,1004.3
2023-03-10T21:12:35.443Z,1004.39
2023-03-10T21:14:36.108Z,1004.42
2023-03-10T21:16:35.649Z,1004.42
2023-03-10T21:18:35.040Z,1004.34
2023-03-10T21:20:35.719Z,1004.34
2023-03-10T21:22:37.338Z,1004.42
2023-03-10T21:24:35.572Z,1004.42
2023-03-10T21:26:36.001Z,1004.47
2023-03-10T21:28:35.617Z,1004.47
2023-03-10T21:30:35.343Z,1004.63
2023-03-10T21:32:38.304Z,1004.63
2023-03-10T21:34:35.138Z,1004.76
2023-03-10T21:36:35.736Z,1004.76
2023-03-10T21:38:35.156Z,1004.87
2023-03-10T21:40:35.802Z,1004.87
2023-03-10T21:42:35.222Z,1004.93
2023-03-10T21:44:35.942Z,1004.93
2023-03-10T21:46:35.795Z,1004.8
2023-03-10T21:48:35.822Z,1004.8
2023-03-10T21:50:35.397Z,1005.02
2023-03-10T21:52:36.096Z,1005.02
2023-03-10T21:54:35.780Z,1005.02
2023-03-10T21:56:36.049Z,1005.02
2023-03-10T21:58:35.580Z,1005.04
2023-03-10T22:00:35.460Z,1005.04
2023-03-10T22:02:35.707Z,1005.01
2023-03-10T22:04:35.491Z,1005.01
2023-03-10T22:06:35.693Z,1005.09
2023-03-10T22:08:35.202Z,1005.09
2023-03-10T22:10:35.771Z,1005.03
2023-03-10T22:12:35.327Z,1005.03
2023-03-10T22:14:35.985Z,1005.26
2023-03-10T22:16:35.638Z,1005.26
2023-03-10T22:18:35.907Z,1005.22
2023-03-10T22:20:35.573Z,1005.22
2023-03-10T22:22:35.910Z,1005.2
2023-03-10T22:24:36.578Z,1005.2
2023-03-10T22:26:35.906Z,1005.27
2023-03-10T22:28:35.476Z,1005.27
2023-03-10T22:30:35.963Z,1005.33
2023-03-10T22:32:35.438Z,1005.33
2023-03-10T22:34:35.843Z,1005.43
2023-03-10T22:36:35.630Z,1005.43
2023-03-10T22:38:35.764Z,1005.4
2023-03-10T22:40:35.206Z,1005.4
2023-03-10T22:42:35.669Z,1005.39
2023-03-10T22:44:35.145Z,1005.39
2023-03-10T22:46:35.897Z,1005.44
2023-03-10T22:48:35.942Z,1005.44
2023-03-10T22:50:35.638Z,1005.61
2023-03-10T22:52:35.280Z,1005.61
2023-03-10T22:54:35.709Z,1005.42
2023-03-10T22:56:35.179Z,1005.42
2023-03-10T22:58:35.917Z,1005.53
2023-03-10T23:00:35.690Z,1005.53
2023-03-10T23:02:35.943Z,1005.66
2023-03-10T23:04:35.459Z,1005.66
2023-03-10T23:06:35.854Z,1005.63
2023-03-10T23:08:35.462Z,1005.63
2023-03-10T23:10:36.000Z,1005.68
2023-03-10T23:12:35.413Z,1005.68
2023-03-10T23:14:35.936Z,1005.8
2023-03-10T23:16:35.751Z,1005.8
2023-03-10T23:18:35.839Z,1005.81
2023-03-10T23:20:35.662Z,1005.81
2023-03-10T23:22:36.099Z,1005.82
2023-03-10T23:24:35.354Z,1005.82
2023-03-10T23:26:35.941Z,1005.84
2023-03-10T23:28:35.356Z,1005.84
2023-03-10T23:30:35.942Z,1005.98
2023-03-10T23:32:35.477Z,1005.98
2023-03-10T23:34:35.815Z,1006.08
2023-03-10T23:36:35.545Z,1006.08
2023-03-10T23:38:35.694Z,1006.1
2023-03-10T23:40:35.421Z,1006.1
2023-03-10T23:42:35.932Z,1006.13
2023-03-10T23:44:35.417Z,1006.13
2023-03-10T23:46:35.959Z,1006.11
2023-03-10T23:48:35.406Z,1006.11
2023-03-10T23:50:36.062Z,1006.14
2023-03-10T23:52:35.643Z,1006.14
2023-03-10T23:54:36.094Z,1006.15
2023-03-10T23:56:35.523Z,1006.15
2023-03-10T23:58:36.257Z,1006.12
